Flight Track Log - Related Links

Times and Time Zones

All times are in EDT time to prevent confusion due to time zone crossing. See the ZK-PBD flight status page for this flight to view local times or setup timezone preferences in your user account.

Time Position Orientation Groundspeed Altitude Reporting Facility
EDT Latitude Longitude Course Direction KTS MPH feet Rate Location/Type
Tue 02:07:15 PM -41.3113 174.7724 303° West  Level FlightAware Approximate
Tue 02:08:15 PM -41.2473 174.6408 303° West  Level FlightAware Approximate
Tue 02:09:15 PM -41.1832 174.5094 303° West  Level FlightAware Approximate
Tue 02:10:15 PM -41.1190 174.3784 303° West  Level FlightAware Approximate
Tue 02:11:15 PM -41.0546 174.2476 303° West  Level FlightAware Approximate
Tue 02:12:15 PM -40.9901 174.1170 303° West  Level FlightAware Approximate
Tue 02:13:15 PM -40.9254 173.9867 303° West  Level FlightAware Approximate
Tue 02:14:15 PM -40.8606 173.8566 303° West  Level FlightAware Approximate
Tue 02:15:15 PM -40.7956 173.7269 303° West  Level FlightAware Approximate
Tue 02:16:15 PM -40.7305 173.5973 304° West  Level FlightAware Approximate
Tue 02:17:15 PM -40.6652 173.4680 304° West  Level FlightAware Approximate
Tue 02:18:15 PM -40.5998 173.3390 304° West  Level FlightAware Approximate
Tue 02:19:15 PM -40.5343 173.2102 304° West  Level FlightAware Approximate
Tue 02:20:15 PM -40.4686 173.0817 304° West  Level FlightAware Approximate
Tue 02:21:15 PM -40.4027 172.9534 304° West  Level FlightAware Approximate
Tue 02:22:15 PM -40.3368 172.8254 304° West  Level FlightAware Approximate
Tue 02:23:15 PM -40.2706 172.6976 304° West  Level FlightAware Approximate
Tue 02:24:15 PM -40.2044 172.5701 304° West  Level FlightAware Approximate
Tue 02:25:15 PM -40.1380 172.4428 304° West  Level FlightAware Approximate
Tue 02:26:15 PM -40.0714 172.3158 304° West  Level FlightAware Approximate
Tue 02:27:15 PM -40.0048 172.1890 304° West  Level FlightAware Approximate
Tue 02:28:15 PM -39.9380 172.0624 304° West  Level FlightAware Approximate
Tue 02:29:15 PM -39.8710 171.9361 305° West  Level FlightAware Approximate
Tue 02:30:15 PM -39.8039 171.8101 305° West  Level FlightAware Approximate
Tue 02:31:15 PM -39.7367 171.6843 305° West  Level FlightAware Approximate
Tue 02:32:15 PM -39.6693 171.5588 305° West  Level FlightAware Approximate
Tue 02:33:15 PM -39.6018 171.4335 305° West  Level FlightAware Approximate
Tue 02:34:15 PM -39.5342 171.3084 305° West  Level FlightAware Approximate
Tue 02:35:15 PM -39.4692 171.1812 305° West  Level FlightAware Approximate
Tue 02:36:15 PM -39.4012 171.0567 305° West  Level FlightAware Approximate
Tue 02:37:15 PM -39.3331 170.9324 305° West  Level FlightAware Approximate
Tue 02:38:15 PM -39.2649 170.8083 305° West  Level FlightAware Approximate
Tue 02:39:15 PM -39.1966 170.6845 305° West  Level FlightAware Approximate
Tue 02:40:15 PM -39.1282 170.5609 305° West  Level FlightAware Approximate
Tue 02:41:15 PM -39.0596 170.4376 306° West  Level FlightAware Approximate
Tue 02:42:15 PM -38.9908 170.3145 306° West  Level FlightAware Approximate
Tue 02:43:15 PM -38.9220 170.1916 306° West  Level FlightAware Approximate
Tue 02:44:15 PM -38.8530 170.0690 306° West  Level FlightAware Approximate
Tue 02:45:15 PM -38.7839 169.9466 306° West  Level FlightAware Approximate
Tue 02:46:15 PM -38.7147 169.8245 306° West  Level FlightAware Approximate
Tue 02:47:15 PM -38.6453 169.7026 306° West  Level FlightAware Approximate
Tue 02:48:15 PM -38.5758 169.5809 306° West  Level FlightAware Approximate
Tue 02:49:15 PM -38.5062 169.4595 306° West  Level FlightAware Approximate
Tue 02:50:15 PM -38.4365 169.3383 306° West  Level FlightAware Approximate
Tue 02:51:15 PM -38.3666 169.2173 306° West  Level FlightAware Approximate
Tue 02:52:15 PM -38.2966 169.0966 306° West  Level FlightAware Approximate
Tue 02:53:15 PM -38.2265 168.9761 306° West  Level FlightAware Approximate
Tue 02:54:15 PM -38.1563 168.8558 306° West  Level FlightAware Approximate
Tue 02:55:15 PM -38.0860 168.7358 307° West  Level FlightAware Approximate
Tue 02:56:15 PM -38.0155 168.6160 307° West  Level FlightAware Approximate
Tue 02:57:15 PM -37.9449 168.4964 307° West  Level FlightAware Approximate
Tue 02:58:15 PM -37.8742 168.3770 307° West  Level FlightAware Approximate
Tue 02:59:15 PM -37.8033 168.2579 307° West  Level FlightAware Approximate
Tue 03:00:15 PM -37.7324 168.1391 307° West  Level FlightAware Approximate
Tue 03:01:15 PM -37.6613 168.0204 307° West  Level FlightAware Approximate
Tue 03:02:15 PM -37.5901 167.9019 307° West  Level FlightAware Approximate
Tue 03:03:15 PM -37.5188 167.7837 307° West  Level FlightAware Approximate
Tue 03:04:15 PM -37.4474 167.6658 307° West  Level FlightAware Approximate
Tue 03:05:15 PM -37.3758 167.5480 307° West  Level FlightAware Approximate
Tue 03:06:15 PM -37.3042 167.4305 307° West  Level FlightAware Approximate
Tue 03:07:15 PM -37.2324 167.3132 307° West  Level FlightAware Approximate
Tue 03:08:15 PM -37.1605 167.1961 307° West  Level FlightAware Approximate
Tue 03:09:15 PM -37.0885 167.0792 308° West  Level FlightAware Approximate
Tue 03:10:15 PM -37.0163 166.9626 308° West  Level FlightAware Approximate
Tue 03:11:15 PM -36.9441 166.8462 308° West  Level FlightAware Approximate
Tue 03:12:15 PM -36.8718 166.7300 308° West  Level FlightAware Approximate
Tue 03:13:15 PM -36.7993 166.6140 308° West  Level FlightAware Approximate
Tue 03:14:15 PM -36.7267 166.4982 308° West  Level FlightAware Approximate
Tue 03:15:15 PM -36.6540 166.3827 308° West  Level FlightAware Approximate
Tue 03:16:15 PM -36.5812 166.2674 308° West  Level FlightAware Approximate
Tue 03:17:15 PM -36.5083 166.1523 308° West  Level FlightAware Approximate
Tue 03:18:15 PM -36.4353 166.0374 308° West  Level FlightAware Approximate
Tue 03:19:15 PM -36.3622 165.9227 308° West  Level FlightAware Approximate
Tue 03:20:15 PM -36.2889 165.8083 308° West  Level FlightAware Approximate
Tue 03:21:15 PM -36.2156 165.6940 308° West  Level FlightAware Approximate
Tue 03:22:15 PM -36.1421 165.5800 308° West  Level FlightAware Approximate
Tue 03:23:15 PM -36.0686 165.4662 308° West  Level FlightAware Approximate
Tue 03:24:15 PM -35.9949 165.3526 309° West  Level FlightAware Approximate
Tue 03:25:15 PM -35.9211 165.2392 309° West  Level FlightAware Approximate
Tue 03:26:15 PM -35.8472 165.1261 309° West  Level FlightAware Approximate
Tue 03:27:15 PM -35.7732 165.0131 309° West  Level FlightAware Approximate
Tue 03:28:15 PM -35.6991 164.9003 309° West  Level FlightAware Approximate
Tue 03:29:15 PM -35.6249 164.7878 309° West  Level FlightAware Approximate
Tue 03:30:15 PM -35.5506 164.6755 309° West  Level FlightAware Approximate
Tue 03:31:15 PM -35.4762 164.5633 309° West  Level FlightAware Approximate
Tue 03:32:15 PM -35.4017 164.4514 309° West  Level FlightAware Approximate
Tue 03:33:15 PM -35.3271 164.3397 309° West  Level FlightAware Approximate
Tue 03:34:15 PM -35.2523 164.2282 309° West  Level FlightAware Approximate
Tue 03:35:15 PM -35.1775 164.1169 309° West  Level FlightAware Approximate
Tue 03:36:15 PM -35.1026 164.0058 309° West  Level FlightAware Approximate
Tue 03:37:15 PM -35.0276 163.8949 309° West  Level FlightAware Approximate
Tue 03:38:15 PM -34.9524 163.7842 309° West  Level FlightAware Approximate
Tue 03:39:15 PM -34.8772 163.6737 309° West  Level FlightAware Approximate
Tue 03:44:24 PM -34.3521 162.9120 310° West 40,000  Level Aus ATC (Calculated)
Tue 03:46:10 PM -34.2225 162.7265 310° West 40,000 Level Aus ATC (Calculated)
Tue 03:47:24 PM -34.1400 162.6089 310° West 40,000 Level Aus ATC (Calculated)
Tue 03:49:15 PM -34.0037 162.4123 310° West  Level FlightAware Approximate
Tue 03:50:15 PM -33.9299 162.3063 310° West  Level FlightAware Approximate
Tue 03:55:57 PM -33.4564 161.6494 310° West 40,000  Level Aus ATC (Calculated)
Tue 03:57:57 PM -33.2780 161.4032 311° West 40,000 Level Aus ATC (Calculated)
Tue 03:59:57 PM -33.1159 161.1809 311° West 40,000 10 Level Aus ATC (Calculated)
Tue 04:01:15 PM -33.0188 161.0457 311° West  Level FlightAware Approximate
Tue 04:02:15 PM -32.9441 160.9418 311° West  Level FlightAware Approximate
Tue 04:03:15 PM -32.8692 160.8382 311° West  Level FlightAware Approximate
Tue 04:04:15 PM -32.7943 160.7347 311° West  Level FlightAware Approximate
Tue 04:05:15 PM -32.7193 160.6314 311° West  Level FlightAware Approximate
Tue 04:10:22 PM -32.2772 160.0519 311° West 40,000  Level Aus ATC (Calculated)
Tue 04:12:15 PM -32.1352 159.8593 311° West  Level FlightAware Approximate
Tue 04:13:15 PM -32.0597 159.7572 311° West  Level FlightAware Approximate
Tue 04:14:15 PM -31.9841 159.6554 311° West  Level FlightAware Approximate
Tue 04:15:15 PM -31.9084 159.5537 311° West  Level FlightAware Approximate
Tue 04:16:15 PM -31.8327 159.4521 311° West  Level FlightAware Approximate
Tue 04:17:15 PM -31.7568 159.3507 311° West  Level FlightAware Approximate
Tue 04:18:15 PM -31.6809 159.2495 312° West  Level FlightAware Approximate
Tue 04:23:22 PM -31.2277 158.6732 311° West 40,000  Level Aus ATC (Calculated)
Tue 04:28:01 PM -30.8386 158.1631 312° West 40,000 25 Level Aus ATC (Calculated)
Tue 04:29:15 PM -30.7498 158.0348 312° West  Level FlightAware Approximate
Tue 04:30:15 PM -30.6777 157.9309 313° West  Level FlightAware Approximate
Tue 04:31:15 PM -30.6055 157.8272 314° West  Level FlightAware Approximate
Tue 04:32:15 PM -30.5332 157.7236 315° West  Level FlightAware Approximate
Tue 04:33:15 PM -30.4608 157.6202 318° Northwest  Level FlightAware Approximate
Tue 04:39:08 PM -30.2544 157.4031 313° West 405 466 40,400  Level Aus ATC (RADAR)
Tue 04:40:03 PM -30.1819 157.3124 312° West 406 467 40,400  Level Aus ATC (RADAR)
Tue 04:41:03 PM -30.1041 157.2128 311° West 405 466 40,400  Level Aus ATC (RADAR)
Tue 04:42:18 PM -30.0104 157.0863 314° West 404 465 40,400  Level Aus ATC (RADAR)
Tue 04:43:23 PM -29.9233 156.9810 315° West 407 468 40,400  Level Aus ATC (RADAR)
Tue 04:44:22 PM -29.8405 156.8861 312° West 406 467 40,400  Level Aus ATC (RADAR)
Tue 04:45:37 PM -29.7439 156.7635 312° West 402 463 40,400 -38 Level Aus ATC (RADAR)
Tue 04:47:02 PM -29.6348 156.6256 313° West 398 458 40,300 -40 Descending Aus ATC (RADAR)
Tue 04:48:07 PM -29.5512 156.5220 313° West 396 456 40,300  Level Aus ATC (RADAR)
Tue 04:49:22 PM -29.4558 156.4025 313° West 396 456 40,300  Level Aus ATC (RADAR)
Tue 04:50:27 PM -29.3733 156.2997 313° West 397 457 40,300  Level Aus ATC (RADAR)
Tue 04:52:07 PM -29.2453 156.1408 313° West 399 459 40,300  Level Aus ATC (RADAR)
Tue 04:53:12 PM -29.1612 156.0368 313° West 400 460 40,300  Level Aus ATC (RADAR)
Tue 04:54:17 PM -29.0768 155.9325 313° West 402 463 40,300  Level Aus ATC (RADAR)
Tue 04:55:17 PM -28.9990 155.8366 313° West 402 463 40,300  Level Aus ATC (RADAR)
Tue 04:56:22 PM -28.9136 155.7333 313° West 405 466 40,300  Level Aus ATC (RADAR)
Tue 04:57:27 PM -28.8301 155.6301 313° West 399 459 40,300  Level Aus ATC (RADAR)
Tue 04:58:32 PM -28.7455 155.5277 313° West 401 461 40,300  Level Aus ATC (RADAR)
Tue 04:59:31 PM -28.6685 155.4334 313° West 397 457 40,300  Level Aus ATC (RADAR)
Tue 05:01:22 PM -28.5260 155.2612 313° West 403 464 40,300  Level Aus ATC (RADAR)
Tue 05:02:11 PM -28.4611 155.1831 313° West 399 459 40,300  Level Aus ATC (RADAR)
Tue 05:02:56 PM -28.4024 155.1124 313° West 403 464 40,300  Level Aus ATC (RADAR)
Tue 05:03:31 PM -28.3572 155.0577 313° West 400 460 40,300  Level Aus ATC (RADAR)
Tue 05:04:06 PM -28.3116 155.0028 313° West 400 460 40,300  Level Aus ATC (RADAR)
Tue 05:04:36 PM -28.2727 154.9559 313° West 398 458 40,300 -92 Level Aus ATC (RADAR)
Tue 05:05:11 PM -28.2271 154.9012 313° West 399 459 40,200 -1,774 Descending Aus ATC (RADAR)
Tue 05:06:31 PM -28.1242 154.7781 313° West 400 460 36,900 -2,786 Descending Aus ATC (RADAR)
Tue 05:07:31 PM -28.0463 154.6845 314° West 409 471 33,700 -2,971 Descending Aus ATC (RADAR)
Tue 05:08:16 PM -27.9865 154.6135 313° West 409 471 31,700 -2,625 Descending Aus ATC (RADAR)
Tue 05:08:51 PM -27.9411 154.5591 314° West 403 464 30,200 -2,486 Descending Aus ATC (RADAR)
Tue 05:09:26 PM -27.8962 154.5061 314° West 396 456 28,800 -2,400 Descending Aus ATC (RADAR)
Tue 05:09:56 PM -27.8583 154.4612 313° West 390 449 27,600 -2,400 Descending Aus ATC (RADAR)
Tue 05:10:31 PM -27.8152 154.4098 314° West 384 442 26,200 -2,304 Descending Aus ATC (RADAR)
Tue 05:12:01 PM -27.7076 154.2819 314° West 366 421 22,800 -2,271 Descending Aus ATC (RADAR)
Tue 05:12:51 PM -27.6495 154.2136 314° West 356 410 20,900 -2,148 Descending Aus ATC (RADAR)
Tue 05:13:22 PM -27.6152 154.1732 314° West 352 405 19,900 -2,156 Descending Aus ATC (RADAR)
Tue 05:13:55 PM -27.5758 154.1268 314° West 349 402 18,600 -1,565 Descending Aus ATC (RADAR)
Tue 05:14:31 PM -27.5373 154.0817 296° West 332 382 18,100 -1,040 Descending Aus ATC (RADAR)
Tue 05:15:10 PM -27.5125 154.0244 280° West 306 352 17,300 -1,488 Descending Aus ATC (RADAR)
Tue 05:16:40 PM -27.4908 153.8854 281° West 295 339 14,900 -1,632 Descending Aus ATC (RADAR)
Tue 05:17:15 PM -27.4820 153.8324 281° West 294 338 13,900 -1,650 Descending Aus ATC (RADAR)
Tue 05:18:00 PM -27.4706 153.7637 287° West 295 339 12,700 -1,333 Descending Aus ATC (RADAR)
Tue 05:18:45 PM -27.4525 153.6982 301° West 286 329 11,900 -1,200 Descending Aus ATC (RADAR)
Tue 05:19:20 PM -27.4286 153.6527 300° West 284 327 11,100 -1,457 Descending Aus ATC (RADAR)
Tue 05:19:55 PM -27.4051 153.6072 300° West 284 327 10,200 -1,650 Descending Aus ATC (RADAR)
Tue 05:20:40 PM -27.3753 153.5486 303° West 286 329 8,900 -1,629 Descending Aus ATC (RADAR)
Tue 05:22:15 PM -27.3066 153.4306 308° West 283 326 6,400 -1,548 Descending Aus ATC (RADAR)
Tue 05:23:15 PM -27.2576 153.3613 308° West 280 322 4,900 -1,091 Descending Aus ATC (RADAR)
Tue 05:24:05 PM -27.2194 153.3067 288° West 257 296 4,400 -500 Descending Aus ATC (RADAR)
Tue 05:24:39 PM -27.2080 153.2667 248° West 230 265 4,200 -786 Descending Aus ATC (RADAR)
Tue 05:25:29 PM -27.2255 153.2173 206° Southwest 210 242 3,300 -979 Descending Aus ATC (RADAR)
Tue 05:27:49 PM -27.3278 153.1613 208° Southwest 139 160 1,100 -882 Descending Aus ATC (RADAR)
Tue 05:28:19 PM -27.3430 153.1522 207° Southwest 125 144 800 -646 Descending Aus ATC (RADAR)
Tue 05:28:54 PM -27.3616 153.1414 207° Southwest 129 148 400 -686 Descending Aus ATC (RADAR)

Login

Don't have an account? Register now (free) for customized features, flight alerts, and more!